Time;durP1;ratioP1;P1;durP2;ratioP2;P2;SDS_P1;SDS_P2;PMS_P1;PMS_P2;Temp;Humidity;BMP_temperature;BMP_pressure;BME280_temperature;BME280_humidity;BME280_pressure;Samples;Min_cycle;Max_cycle;Signal;HPM_P1;HPM_P2
2022/03/01 00:00:16;;;;;;;28.90;15.82;;;;;;;2.24;69.22;100285.38;5008853;28;20542;-74
2022/03/01 00:02:43;;;;;;;27.80;15.38;;;;;;;2.30;69.41;100286.53;5011609;28;20072;-74
2022/03/01 00:05:09;;;;;;;28.33;15.00;;;;;;;2.24;69.07;100287.19;5009946;28;20107;-73
2022/03/01 00:07:34;;;;;;;27.33;14.73;;;;;;;2.26;69.67;100298.38;5008638;28;20085;-73
2022/03/01 00:09:59;;;;;;;27.92;15.27;;;;;;;2.25;69.11;100292.28;5006444;28;20553;-73
2022/03/01 00:12:25;;;;;;;31.50;15.13;;;;;;;2.21;69.69;100290.13;4992010;28;20034;-73
2022/03/01 00:14:50;;;;;;;27.95;15.35;;;;;;;2.25;68.95;100294.91;4977417;28;20042;-73
2022/03/01 00:17:15;;;;;;;22.60;14.18;;;;;;;2.23;69.08;100293.44;5009695;28;20029;-74
2022/03/01 00:19:41;;;;;;;24.48;12.93;;;;;;;2.10;69.58;100282.53;5012602;28;20084;-72
2022/03/01 00:22:06;;;;;;;32.85;16.13;;;;;;;2.19;69.42;100294.75;5006365;28;20038;-71
2022/03/01 00:24:31;;;;;;;25.27;14.88;;;;;;;2.16;69.46;100293.25;5009957;28;20123;-72
2022/03/01 00:26:56;;;;;;;24.48;14.93;;;;;;;2.02;68.89;100275.44;5011692;28;20045;-74
2022/03/01 00:29:22;;;;;;;27.40;13.55;;;;;;;2.16;68.92;100300.34;5013974;28;20034;-74
2022/03/01 00:31:47;;;;;;;26.38;14.80;;;;;;;2.14;69.20;100295.22;4991586;28;20034;-75
2022/03/01 00:34:12;;;;;;;23.15;12.65;;;;;;;2.15;69.31;100307.41;4992402;28;20080;-73
2022/03/01 00:36:37;;;;;;;26.92;14.50;;;;;;;2.13;68.47;100304.13;5008601;28;20414;-73
2022/03/01 00:39:05;;;;;;;25.10;13.98;;;;;;;2.05;69.04;100287.47;5010777;28;20041;-72
2022/03/01 00:41:30;;;;;;;24.65;12.13;;;;;;;2.11;68.94;100294.72;5009638;28;20034;-73
2022/03/01 00:43:56;;;;;;;24.33;13.52;;;;;;;2.09;69.36;100297.53;4989114;28;20043;-73
2022/03/01 00:46:23;;;;;;;25.40;13.68;;;;;;;1.98;68.69;100282.00;5012625;28;20479;-74
2022/03/01 00:48:48;;;;;;;26.27;14.85;;;;;;;2.04;68.49;100297.16;5009671;28;20053;-73
2022/03/01 00:51:14;;;;;;;26.85;13.77;;;;;;;2.03;68.92;100282.31;5016468;28;20030;-74
2022/03/01 00:53:39;;;;;;;29.33;14.68;;;;;;;1.98;68.42;100294.34;5014842;28;20076;-74
2022/03/01 00:56:05;;;;;;;26.55;14.13;;;;;;;1.98;68.83;100295.16;5013573;28;20061;-74
2022/03/01 00:58:31;;;;;;;28.48;14.60;;;;;;;1.90;68.54;100275.88;4997255;28;20113;-73
2022/03/01 01:00:56;;;;;;;25.63;14.02;;;;;;;1.99;69.29;100301.22;4998918;28;20116;-75
2022/03/01 01:03:22;;;;;;;29.45;14.43;;;;;;;1.96;68.85;100305.03;5021162;28;20124;-72
2022/03/01 01:05:47;;;;;;;37.17;14.15;;;;;;;1.97;69.23;100304.03;4994350;28;20034;-74
2022/03/01 01:08:12;;;;;;;24.48;12.90;;;;;;;1.93;69.14;100302.69;5010904;28;20038;-74
2022/03/01 01:10:37;;;;;;;24.02;14.73;;;;;;;1.90;68.99;100303.00;5011510;28;20030;-72
2022/03/01 01:13:03;;;;;;;28.02;13.98;;;;;;;1.89;68.97;100305.81;5011298;28;20036;-73
2022/03/01 01:15:28;;;;;;;26.60;14.80;;;;;;;1.86;68.84;100301.69;5010665;28;20026;-72
2022/03/01 01:17:53;;;;;;;28.00;14.02;;;;;;;1.87;68.82;100300.72;5011634;28;20042;-73
2022/03/01 01:20:19;;;;;;;27.20;14.10;;;;;;;1.85;68.73;100288.69;5011839;28;20120;-74
2022/03/01 01:22:44;;;;;;;21.45;13.35;;;;;;;1.83;69.34;100301.19;4979005;28;20080;-74
2022/03/01 01:25:21;;;;;;;28.02;14.02;;;;;;;1.71;68.80;100276.94;5009109;28;20109;-73
2022/03/01 01:27:49;;;;;;;24.10;12.73;;;;;;;1.73;68.55;100264.44;4994075;28;20410;-73
2022/03/01 01:30:18;;;;;;;24.42;12.23;;;;;;;1.77;68.46;100283.38;5014012;28;20036;-72
2022/03/01 01:32:43;;;;;;;28.83;13.80;;;;;;;1.78;68.91;100283.22;5013565;28;20038;-74
2022/03/01 01:35:11;;;;;;;24.45;12.52;;;;;;;1.75;68.55;100282.72;4988379;28;20368;-73
2022/03/01 01:37:37;;;;;;;25.42;13.55;;;;;;;1.75;68.49;100287.97;5013041;28;20117;-73
2022/03/01 01:40:04;;;;;;;30.55;14.07;;;;;;;1.73;68.55;100289.91;5007858;28;20112;-75
2022/03/01 01:42:30;;;;;;;25.10;13.93;;;;;;;1.72;68.92;100296.19;5013400;28;20084;-74
2022/03/01 01:44:55;;;;;;;22.58;11.82;;;;;;;1.69;68.76;100302.56;4995193;28;20068;-74
2022/03/01 01:47:21;;;;;;;26.40;13.95;;;;;;;1.70;68.82;100300.78;5006860;28;20034;-74
2022/03/01 01:49:46;;;;;;;24.35;12.70;;;;;;;1.72;68.43;100304.91;4991721;28;20106;-73
2022/03/01 01:52:11;;;;;;;25.60;12.93;;;;;;;1.67;68.81;100291.38;4993565;28;20060;-74
2022/03/01 01:54:37;;;;;;;24.88;14.27;;;;;;;1.63;68.60;100284.78;5013837;28;20058;-73
2022/03/01 01:57:16;;;;;;;24.65;13.52;;;;;;;1.63;68.68;100297.94;5010584;28;20026;-75
2022/03/01 01:59:41;;;;;;;24.42;12.82;;;;;;;1.58;68.61;100294.09;5010804;28;20044;-74
2022/03/01 02:02:10;;;;;;;24.80;12.23;;;;;;;1.57;68.76;100289.84;4994529;28;20038;-73
2022/03/01 02:04:35;;;;;;;27.35;13.68;;;;;;;1.60;68.91;100297.41;5011145;28;20026;-74
2022/03/01 02:07:00;;;;;;;24.00;12.52;;;;;;;1.53;68.23;100284.88;5013176;28;20595;-74
2022/03/01 02:09:25;;;;;;;25.15;12.60;;;;;;;1.55;68.35;100290.00;5011668;28;20037;-73
2022/03/01 02:11:51;;;;;;;27.55;12.75;;;;;;;1.51;68.03;100278.13;5015325;28;20095;-74
2022/03/01 02:14:16;;;;;;;27.23;14.32;;;;;;;1.53;68.92;100292.78;5011177;28;20029;-74
2022/03/01 02:16:41;;;;;;;24.33;13.27;;;;;;;1.48;68.21;100286.34;5012255;28;20048;-73
2022/03/01 02:19:11;;;;;;;29.73;13.63;;;;;;;1.50;68.98;100295.75;5013300;28;20036;-73
2022/03/01 02:21:47;;;;;;;24.25;12.02;;;;;;;1.47;68.46;100298.66;5012728;28;20087;-74
2022/03/01 02:24:13;;;;;;;;;;;;;;;1.39;68.63;100292.53;5004106;28;20025;-75
2022/03/01 02:26:38;;;;;;;26.17;13.03;;;;;;;1.35;69.08;100286.75;5017124;28;19936;-74
2022/03/01 02:29:03;;;;;;;24.40;13.93;;;;;;;1.40;68.59;100288.91;4996076;28;20041;-74
2022/03/01 02:31:28;;;;;;;25.92;14.25;;;;;;;1.40;68.63;100289.72;5013273;28;20037;-76
2022/03/01 02:33:54;;;;;;;24.70;13.88;;;;;;;1.39;68.87;100297.78;4994639;28;20025;-74
2022/03/01 02:36:19;;;;;;;28.00;15.25;;;;;;;1.31;68.87;100272.25;5011171;28;20034;-75
2022/03/01 02:38:44;;;;;;;29.92;13.55;;;;;;;1.37;68.95;100284.81;5012376;28;20065;-74
2022/03/01 02:41:10;;;;;;;28.15;13.85;;;;;;;1.33;68.52;100282.63;4995839;28;20041;-74
2022/03/01 02:43:35;;;;;;;30.52;14.02;;;;;;;1.34;68.39;100285.09;4997918;28;20394;-74
2022/03/01 02:46:00;;;;;;;28.42;14.32;;;;;;;1.27;69.26;100278.78;4989857;28;20743;-72
2022/03/01 02:48:25;;;;;;;28.23;14.18;;;;;;;1.33;68.56;100295.78;4993859;28;20624;-74
2022/03/01 02:50:51;;;;;;;26.35;14.35;;;;;;;1.31;69.06;100284.59;4993217;28;20045;-74
2022/03/01 02:53:16;;;;;;;25.27;14.43;;;;;;;1.29;68.34;100287.34;5010426;28;20084;-74
2022/03/01 02:55:41;;;;;;;27.80;14.18;;;;;;;1.28;68.65;100288.34;5010309;28;20034;-73
2022/03/01 02:58:07;;;;;;;29.05;14.98;;;;;;;1.26;68.77;100285.06;4988370;28;20044;-73
2022/03/01 03:00:32;;;;;;;29.30;13.75;;;;;;;1.24;68.97;100288.81;4991325;28;20065;-74
2022/03/01 03:02:58;;;;;;;27.30;14.90;;;;;;;1.15;69.30;100266.88;5001117;28;20057;-74
2022/03/01 03:05:23;;;;;;;30.00;14.52;;;;;;;1.20;68.82;100267.22;5009403;28;20044;-72
2022/03/01 03:07:48;;;;;;;27.75;14.88;;;;;;;1.23;68.93;100287.97;4991850;28;20042;-74
2022/03/01 03:10:14;;;;;;;24.48;13.23;;;;;;;1.20;68.87;100275.13;5009583;28;20394;-74
2022/03/01 03:12:40;;;;;;;27.08;13.75;;;;;;;1.17;68.61;100272.00;5009843;28;20033;-74
2022/03/01 03:15:06;;;;;;;29.08;14.63;;;;;;;1.15;68.12;100274.78;4991854;28;20030;-74
2022/03/01 03:17:31;;;;;;;31.42;15.50;;;;;;;1.19;68.07;100272.66;5012574;28;20033;-72
2022/03/01 03:19:57;;;;;;;28.30;14.32;;;;;;;1.18;68.57;100281.53;5013804;28;20042;-74
2022/03/01 03:22:22;;;;;;;24.77;13.43;;;;;;;1.15;68.32;100285.28;5010188;28;20030;-75
2022/03/01 03:24:47;;;;;;;25.38;14.45;;;;;;;1.14;67.89;100265.22;5009248;28;20030;-73
2022/03/01 03:27:13;;;;;;;30.48;15.48;;;;;;;1.12;68.53;100284.75;4992164;28;20095;-74
2022/03/01 03:29:38;;;;;;;27.15;15.20;;;;;;;1.06;68.47;100270.44;5010680;28;20034;-74
2022/03/01 03:32:03;;;;;;;26.88;14.63;;;;;;;1.02;68.50;100268.25;4976092;28;20116;-71
2022/03/01 03:34:29;;;;;;;30.13;14.70;;;;;;;1.08;68.57;100268.47;4993898;28;20022;-74
2022/03/01 03:36:55;;;;;;;31.08;14.70;;;;;;;1.08;68.21;100265.00;5008993;28;20164;-73
2022/03/01 03:39:21;;;;;;;25.77;14.52;;;;;;;1.02;68.41;100253.31;4992043;28;20109;-74
2022/03/01 03:41:46;;;;;;;26.23;14.57;;;;;;;1.06;67.73;100265.19;4992282;28;20045;-72
2022/03/01 03:44:11;;;;;;;32.58;16.02;;;;;;;1.05;68.02;100262.72;5008518;28;20017;-73
2022/03/01 03:46:37;;;;;;;31.70;15.82;;;;;;;1.00;68.74;100264.97;5009177;28;20084;-73
2022/03/01 03:49:03;;;;;;;29.05;13.95;;;;;;;0.99;68.03;100261.50;5009252;28;20037;-72
2022/03/01 03:51:28;;;;;;;25.73;13.55;;;;;;;0.95;68.61;100254.91;4987458;28;20029;-74
2022/03/01 03:53:54;;;;;;;35.33;15.05;;;;;;;0.98;68.44;100259.88;4990986;28;20109;-73
2022/03/01 03:56:20;;;;;;;27.05;14.73;;;;;;;0.92;67.61;100242.06;5010201;28;20080;-73
2022/03/01 03:58:45;;;;;;;31.05;16.05;;;;;;;0.95;67.85;100256.69;5010679;28;20065;-74
2022/03/01 04:01:10;;;;;;;28.08;14.27;;;;;;;0.93;67.99;100251.59;5014807;28;20054;-73
2022/03/01 04:03:36;;;;;;;27.15;14.80;;;;;;;0.92;68.64;100255.19;5006481;28;20121;-72
2022/03/01 04:06:02;;;;;;;26.88;14.43;;;;;;;0.92;67.96;100264.91;5010072;28;20041;-74
2022/03/01 04:08:27;;;;;;;28.65;14.70;;;;;;;0.86;68.24;100258.44;5009078;28;20034;-74
2022/03/01 04:10:54;;;;;;;27.88;14.73;;;;;;;0.88;68.17;100263.53;5006636;28;20038;-74
2022/03/01 04:13:20;;;;;;;24.90;13.20;;;;;;;0.86;68.08;100279.47;5008153;28;20165;-74
2022/03/01 04:15:45;;;;;;;24.58;12.82;;;;;;;0.85;68.10;100269.13;5013020;28;20113;-70
2022/03/01 04:18:10;;;;;;;27.75;13.68;;;;;;;0.82;67.70;100270.22;5006327;28;20029;-75
2022/03/01 04:20:36;;;;;;;28.75;14.27;;;;;;;0.77;68.15;100267.22;5011437;28;20033;-72
2022/03/01 04:23:01;;;;;;;28.85;13.50;;;;;;;0.80;67.56;100269.56;4999261;28;20041;-74
2022/03/01 04:25:26;;;;;;;25.42;14.63;;;;;;;0.80;67.31;100268.72;4996193;28;20722;-75
2022/03/01 04:27:52;;;;;;;26.30;14.25;;;;;;;0.80;67.19;100255.59;5013073;28;20121;-74
2022/03/01 04:30:17;;;;;;;25.75;13.43;;;;;;;0.76;67.73;100255.88;5013646;28;20425;-75
2022/03/01 04:32:45;;;;;;;26.75;13.82;;;;;;;0.76;67.77;100262.97;5012667;28;20212;-70
2022/03/01 04:35:10;;;;;;;24.98;13.48;;;;;;;0.68;67.72;100249.72;4998495;28;20041;-73
2022/03/01 04:37:37;;;;;;;31.98;14.88;;;;;;;0.72;67.34;100261.63;5013124;28;20589;-73
2022/03/01 04:40:05;;;;;;;24.50;14.40;;;;;;;0.67;67.72;100250.72;5008224;28;20108;-73
2022/03/01 04:42:31;;;;;;;29.40;14.18;;;;;;;0.69;67.44;100257.50;5018734;28;20018;-73
2022/03/01 04:44:56;;;;;;;29.88;13.85;;;;;;;0.69;68.15;100261.91;5013331;28;20044;-72
2022/03/01 04:47:21;;;;;;;28.83;15.02;;;;;;;0.66;67.69;100263.03;5013314;28;20554;-74
2022/03/01 04:49:47;;;;;;;26.67;13.63;;;;;;;0.65;67.56;100263.19;5012707;28;20032;-71
2022/03/01 04:52:12;;;;;;;23.15;13.85;;;;;;;0.65;67.59;100255.31;5012106;28;20088;-71
2022/03/01 04:54:37;;;;;;;26.90;15.23;;;;;;;0.63;67.30;100263.31;4979208;28;20057;-71
2022/03/01 04:57:02;;;;;;;25.65;14.32;;;;;;;0.62;67.26;100260.84;4998303;28;20131;-71
2022/03/01 04:59:28;;;;;;;25.85;13.10;;;;;;;0.58;67.94;100262.13;5012807;28;20041;-71
2022/03/01 05:01:53;;;;;;;29.65;15.48;;;;;;;0.51;68.06;100250.56;5012820;28;20053;-72
2022/03/01 05:04:18;;;;;;;29.88;14.05;;;;;;;0.58;67.65;100256.88;5012908;28;20026;-72
2022/03/01 05:06:45;;;;;;;27.60;13.70;;;;;;;0.57;67.56;100261.31;4994717;28;20072;-72
2022/03/01 05:09:12;;;;;;;24.83;13.95;;;;;;;0.56;67.45;100254.41;5010918;28;20518;-71
2022/03/01 05:11:37;;;;;;;23.77;12.98;;;;;;;0.55;67.26;100254.53;4993319;28;20046;-72
2022/03/01 05:14:03;;;;;;;24.15;13.95;;;;;;;0.54;67.57;100252.91;5011173;28;20541;-71
2022/03/01 05:16:28;;;;;;;24.58;13.52;;;;;;;0.51;67.41;100251.41;4996077;28;20030;-73
2022/03/01 05:18:53;;;;;;;25.42;13.50;;;;;;;0.50;68.16;100256.81;5011515;28;20053;-73
2022/03/01 05:21:19;;;;;;;25.75;14.82;;;;;;;0.52;67.36;100268.00;4978037;28;20034;-73
2022/03/01 05:23:44;;;;;;;23.45;13.73;;;;;;;0.50;67.02;100260.25;4994412;28;20490;-73
2022/03/01 05:26:09;;;;;;;26.58;13.35;;;;;;;0.42;67.95;100252.28;4988300;28;20394;-73
2022/03/01 05:28:35;;;;;;;22.80;13.82;;;;;;;0.36;68.23;100246.81;5011280;28;20060;-73
2022/03/01 05:31:00;;;;;;;23.50;13.15;;;;;;;0.39;67.98;100243.91;5011115;28;20041;-74
2022/03/01 05:33:25;;;;;;;27.20;13.63;;;;;;;0.43;67.71;100264.47;5012654;28;20041;-73
2022/03/01 05:35:51;;;;;;;30.80;14.85;;;;;;;0.39;67.46;100254.41;5011921;28;20061;-73
2022/03/01 05:38:16;;;;;;;25.20;14.40;;;;;;;0.41;67.93;100255.91;5011075;28;20120;-72
2022/03/01 05:40:42;;;;;;;24.88;13.23;;;;;;;0.41;68.26;100255.91;5013529;28;20441;-73
2022/03/01 05:43:08;;;;;;;24.25;12.95;;;;;;;0.34;68.15;100248.75;5013429;28;20037;-73
2022/03/01 05:45:34;;;;;;;26.55;12.50;;;;;;;0.35;67.48;100247.81;5012148;28;20033;-74
2022/03/01 05:48:00;;;;;;;23.80;13.40;;;;;;;0.36;67.42;100252.06;4994625;28;20034;-73
2022/03/01 05:50:26;;;;;;;24.90;13.55;;;;;;;0.37;67.78;100256.34;5012605;28;20108;-73
2022/03/01 05:52:52;;;;;;;25.95;13.43;;;;;;;0.36;67.92;100260.78;4993552;28;20029;-73
2022/03/01 05:55:18;;;;;;;24.90;13.48;;;;;;;0.34;67.39;100256.63;5016706;28;20033;-73
2022/03/01 05:57:43;;;;;;;23.88;12.57;;;;;;;0.31;67.65;100262.19;5012133;28;20068;-73
2022/03/01 06:00:12;;;;;;;28.85;14.50;;;;;;;0.34;67.87;100269.78;4993431;28;20026;-73
2022/03/01 06:02:37;;;;;;;23.60;13.93;;;;;;;0.33;67.05;100265.50;5009238;28;20038;-73
2022/03/01 06:05:03;;;;;;;28.60;13.43;;;;;;;0.25;67.41;100271.47;4994741;28;20590;-73
2022/03/01 06:07:28;;;;;;;26.45;13.60;;;;;;;0.29;67.75;100280.72;5010904;28;20101;-72
2022/03/01 06:09:53;;;;;;;26.95;13.98;;;;;;;0.29;68.16;100283.34;4994178;28;20026;-73
2022/03/01 06:12:19;;;;;;;28.83;13.05;;;;;;;0.29;67.31;100287.75;5007087;28;20040;-73
2022/03/01 06:14:44;;;;;;;23.35;12.65;;;;;;;0.26;67.59;100272.31;5011088;28;20065;-72
2022/03/01 06:17:09;;;;;;;22.35;11.88;;;;;;;0.27;67.69;100277.41;4993055;28;20049;-73
2022/03/01 06:19:35;;;;;;;25.50;12.85;;;;;;;0.25;68.02;100278.53;5010748;28;20032;-72
2022/03/01 06:22:01;;;;;;;22.17;12.05;;;;;;;0.25;67.51;100273.28;5011300;28;20042;-75
2022/03/01 06:24:27;;;;;;;24.92;13.20;;;;;;;0.23;67.34;100276.06;5011803;28;20032;-72
2022/03/01 06:26:53;;;;;;;23.98;12.57;;;;;;;0.19;67.95;100271.25;5010196;28;20046;-72
2022/03/01 06:29:18;;;;;;;27.25;13.35;;;;;;;0.24;68.12;100271.63;5009893;28;20083;-71
2022/03/01 06:31:43;;;;;;;30.83;15.68;;;;;;;0.19;67.53;100273.88;5016121;28;20425;-74
2022/03/01 06:34:09;;;;;;;31.15;16.27;;;;;;;0.08;66.43;100277.53;5014401;28;20038;-73
2022/03/01 06:36:34;;;;;;;26.50;14.55;;;;;;;0.00;65.93;100282.69;5010985;28;20034;-73
2022/03/01 06:38:59;;;;;;;23.55;13.48;;;;;;;-0.08;66.30;100283.41;4989304;28;20105;-71
2022/03/01 06:41:28;;;;;;;36.70;16.85;;;;;;;-0.19;66.68;100288.00;4994639;28;20033;-73
2022/03/01 06:43:53;;;;;;;28.52;14.88;;;;;;;-0.38;66.95;100264.47;5007390;28;20353;-73
2022/03/01 06:46:20;;;;;;;27.52;15.13;;;;;;;-0.38;67.28;100282.84;5008736;28;20124;-73
2022/03/01 06:48:46;;;;;;;32.67;16.70;;;;;;;-0.34;67.74;100302.56;5004940;28;20116;-71
2022/03/01 06:51:11;;;;;;;30.13;16.35;;;;;;;-0.28;67.34;100300.19;5020279;28;20113;-71
2022/03/01 06:53:37;;;;;;;36.17;15.73;;;;;;;-0.25;67.96;100301.72;4997444;28;20489;-73
2022/03/01 06:56:03;;;;;;;26.38;13.85;;;;;;;-0.26;67.67;100305.28;5003919;28;20161;-71
2022/03/01 06:58:29;;;;;;;23.45;13.50;;;;;;;-0.23;67.94;100308.47;5012105;28;20080;-73
2022/03/01 07:00:56;;;;;;;24.95;13.63;;;;;;;-0.23;68.50;100300.59;5003231;28;20516;-72
2022/03/01 07:03:21;;;;;;;29.40;15.27;;;;;;;-0.23;67.92;100305.84;5017353;28;20056;-72
2022/03/01 07:05:47;;;;;;;28.45;14.27;;;;;;;-0.15;67.79;100312.97;5013431;28;20460;-73
2022/03/01 07:08:13;;;;;;;22.27;13.65;;;;;;;-0.15;68.55;100316.44;4998355;28;20033;-73
2022/03/01 07:10:38;;;;;;;30.15;14.55;;;;;;;-0.13;68.08;100319.75;5010602;28;20025;-73
2022/03/01 07:13:04;;;;;;;23.63;12.93;;;;;;;-0.08;68.08;100316.69;5013612;28;20029;-72
2022/03/01 07:15:30;;;;;;;30.40;15.00;;;;;;;-0.08;68.89;100309.66;5011530;28;20058;-73
2022/03/01 07:17:55;;;;;;;25.90;14.10;;;;;;;-0.10;68.94;100301.09;5005269;28;20030;-73
2022/03/01 07:20:20;;;;;;;26.45;13.98;;;;;;;-0.04;68.24;100308.38;4994154;28;20107;-73
2022/03/01 07:22:48;;;;;;;26.63;12.85;;;;;;;0.00;69.12;100309.75;5010182;28;20490;-73
2022/03/01 07:25:14;;;;;;;29.38;14.65;;;;;;;0.02;69.24;100304.38;5008772;28;20045;-71
2022/03/01 07:27:52;;;;;;;23.20;14.13;;;;;;;0.07;68.79;100311.81;5002661;28;20029;-73
2022/03/01 07:30:19;;;;;;;24.08;13.23;;;;;;;0.04;69.37;100296.34;5007187;28;20048;-72
2022/03/01 07:32:44;;;;;;;24.05;13.40;;;;;;;0.09;68.44;100296.75;5008599;28;20121;-72
2022/03/01 07:35:10;;;;;;;29.73;15.07;;;;;;;0.07;69.27;100296.06;5012677;28;20056;-72
2022/03/01 07:37:37;;;;;;;27.85;13.80;;;;;;;0.14;69.34;100300.56;5008668;28;20444;-71
2022/03/01 07:40:07;;;;;;;24.23;13.40;;;;;;;0.18;68.49;100290.59;5001745;28;20036;-72
2022/03/01 07:42:32;;;;;;;24.75;13.10;;;;;;;0.15;69.21;100293.53;5015039;28;20389;-72
2022/03/01 07:44:57;;;;;;;21.52;13.30;;;;;;;0.20;68.54;100302.59;5017468;28;20045;-72
2022/03/01 07:47:23;;;;;;;21.48;12.65;;;;;;;0.22;68.80;100295.41;5009516;28;20500;-73
2022/03/01 07:49:49;;;;;;;26.63;12.85;;;;;;;0.24;69.55;100292.66;4993447;28;20394;-73
2022/03/01 07:52:14;;;;;;;20.10;11.48;;;;;;;0.27;69.48;100294.97;4990171;28;20030;-72
2022/03/01 07:54:40;;;;;;;21.95;12.02;;;;;;;0.27;69.08;100287.06;5008731;28;20026;-72
2022/03/01 07:57:05;;;;;;;27.70;12.82;;;;;;;0.26;69.09;100283.66;4993565;28;20505;-72
2022/03/01 07:59:30;;;;;;;20.02;11.60;;;;;;;0.32;68.52;100284.84;5007167;28;20045;-72
2022/03/01 08:01:56;;;;;;;21.73;12.25;;;;;;;0.38;68.76;100292.13;5011626;28;20037;-72
2022/03/01 08:04:21;;;;;;;21.73;12.13;;;;;;;0.39;68.83;100291.16;4994358;28;20521;-72
2022/03/01 08:06:46;;;;;;;21.13;11.73;;;;;;;0.43;68.51;100284.63;5010633;28;20060;-72
2022/03/01 08:09:11;;;;;;;26.02;13.15;;;;;;;0.45;67.80;100290.56;5015846;28;20387;-72
2022/03/01 08:11:37;;;;;;;18.27;11.52;;;;;;;0.47;68.02;100278.09;4986409;28;20046;-72
2022/03/01 08:14:02;;;;;;;23.10;11.50;;;;;;;0.53;68.68;100277.50;5013379;28;20037;-72
2022/03/01 08:16:27;;;;;;;21.92;12.10;;;;;;;0.52;67.95;100286.38;5018639;28;20062;-72
2022/03/01 08:18:53;;;;;;;24.20;11.90;;;;;;;0.56;66.76;100283.31;5000991;28;20021;-72
2022/03/01 08:21:18;;;;;;;17.70;11.90;;;;;;;0.58;67.90;100280.53;5013283;28;20394;-72
2022/03/01 08:23:44;;;;;;;21.05;13.52;;;;;;;0.63;67.61;100273.03;5020708;28;20041;-72
2022/03/01 08:26:09;;;;;;;21.17;12.57;;;;;;;0.56;67.46;100261.47;5012990;28;20038;-72
2022/03/01 08:28:34;;;;;;;18.50;11.95;;;;;;;0.62;67.28;100263.47;5003498;28;20030;-72
2022/03/01 08:31:00;;;;;;;20.48;11.68;;;;;;;0.73;68.15;100273.75;4976659;28;20034;-72
2022/03/01 08:33:25;;;;;;;20.52;12.38;;;;;;;0.68;67.11;100263.69;5011773;28;20034;-73
2022/03/01 08:35:52;;;;;;;24.95;12.93;;;;;;;0.80;68.16;100274.00;5025532;28;20480;-73
2022/03/01 08:38:17;;;;;;;23.58;13.25;;;;;;;0.83;67.65;100279.75;5011450;28;20038;-72
2022/03/01 08:40:43;;;;;;;26.60;13.45;;;;;;;0.86;68.19;100282.09;4991296;28;20069;-72
2022/03/01 08:43:11;;;;;;;19.75;12.40;;;;;;;0.86;67.88;100262.88;5007732;28;20053;-73
2022/03/01 08:45:38;;;;;;;18.98;11.50;;;;;;;0.94;67.35;100276.91;5016987;28;20026;-72
2022/03/01 08:48:04;;;;;;;18.02;11.50;;;;;;;0.93;67.46;100274.44;5022530;28;20121;-72
2022/03/01 08:50:30;;;;;;;21.38;10.68;;;;;;;0.98;67.43;100274.81;5011099;28;20108;-73
2022/03/01 08:52:56;;;;;;;20.23;11.13;;;;;;;0.99;66.75;100268.56;5015173;28;20088;-72
2022/03/01 08:55:21;;;;;;;20.80;10.90;;;;;;;1.02;66.79;100276.16;4989063;28;20026;-73
2022/03/01 08:57:47;;;;;;;18.02;11.27;;;;;;;1.02;66.61;100274.34;5010191;28;20403;-72
2022/03/01 09:00:14;;;;;;;20.15;11.68;;;;;;;1.10;66.09;100269.16;5007234;28;20059;-73
2022/03/01 09:02:39;;;;;;;21.15;11.10;;;;;;;1.13;65.99;100278.53;5009530;28;20037;-72
2022/03/01 09:05:05;;;;;;;21.02;11.48;;;;;;;1.15;66.20;100272.16;5000088;28;20120;-73
2022/03/01 09:07:32;;;;;;;17.05;10.55;;;;;;;1.19;66.67;100275.28;5020579;28;20065;-72
2022/03/01 09:09:57;;;;;;;15.70;10.45;;;;;;;1.22;66.20;100280.25;5011453;28;20405;-73
2022/03/01 09:12:22;;;;;;;18.17;10.88;;;;;;;1.26;65.96;100271.91;5018420;28;20026;-73
2022/03/01 09:14:48;;;;;;;18.00;11.02;;;;;;;1.21;66.59;100258.38;5017762;28;20030;-72
2022/03/01 09:17:13;;;;;;;15.57;10.75;;;;;;;1.31;65.62;100271.44;5020006;28;20032;-74
2022/03/01 09:19:38;;;;;;;15.80;10.48;;;;;;;1.33;65.83;100265.03;4994446;28;20442;-74
2022/03/01 09:22:03;;;;;;;19.40;10.52;;;;;;;1.31;66.51;100253.84;5023380;28;20041;-73
2022/03/01 09:24:29;;;;;;;17.70;11.90;;;;;;;1.39;65.97;100253.91;5011108;28;20543;-73
2022/03/01 09:26:57;;;;;;;19.95;10.82;;;;;;;1.38;66.27;100246.97;5015712;28;20033;-73
2022/03/01 09:29:22;;;;;;;17.75;10.30;;;;;;;1.46;66.47;100254.91;4992089;28;20030;-72
2022/03/01 09:31:48;;;;;;;19.13;10.85;;;;;;;1.50;65.80;100250.19;5008254;28;20464;-72
2022/03/01 09:34:13;;;;;;;16.17;9.95;;;;;;;1.52;66.27;100259.56;5000833;28;20032;-72
2022/03/01 09:36:38;;;;;;;19.92;11.10;;;;;;;1.55;66.20;100257.59;4994532;28;20448;-73
2022/03/01 09:39:04;;;;;;;19.20;11.13;;;;;;;1.55;66.01;100244.44;4962671;28;20041;-73
2022/03/01 09:41:32;;;;;;;18.70;11.07;;;;;;;1.63;65.81;100250.59;5011584;28;20041;-72
2022/03/01 09:43:58;;;;;;;17.55;11.13;;;;;;;1.68;66.13;100255.38;5011710;28;20026;-72
2022/03/01 09:46:24;;;;;;;20.05;10.55;;;;;;;1.73;65.98;100253.91;5012298;28;20026;-72
2022/03/01 09:48:49;;;;;;;21.38;11.07;;;;;;;1.76;65.81;100245.72;4994472;28;20032;-72
2022/03/01 09:51:19;;;;;;;22.02;10.95;;;;;;;1.79;65.96;100239.31;5012747;28;20033;-72
2022/03/01 09:53:47;;;;;;;18.42;10.02;;;;;;;1.76;66.51;100234.34;5009872;28;20108;-73
2022/03/01 09:56:15;;;;;;;17.42;11.50;;;;;;;1.88;66.18;100246.25;5011469;28;20036;-73
2022/03/01 09:58:47;;;;;;;21.25;11.30;;;;;;;1.92;66.04;100240.50;5004071;28;20029;-72
2022/03/01 10:01:14;;;;;;;16.48;10.60;;;;;;;1.98;66.12;100247.78;4994017;28;20041;-73
2022/03/01 10:03:40;;;;;;;17.55;10.88;;;;;;;2.04;66.22;100246.31;4997522;28;20030;-73
2022/03/01 10:06:07;;;;;;;17.15;10.57;;;;;;;2.09;66.59;100250.13;5019204;28;20049;-73
2022/03/01 10:08:32;;;;;;;17.90;10.20;;;;;;;2.12;66.80;100241.06;5016592;28;20029;-73
2022/03/01 10:10:58;;;;;;;17.45;10.60;;;;;;;2.12;66.67;100239.25;5015147;28;20041;-72
2022/03/01 10:13:28;;;;;;;15.10;10.38;;;;;;;2.21;65.66;100248.81;5008331;28;20084;-73
2022/03/01 10:16:06;;;;;;;19.45;11.07;;;;;;;2.23;66.27;100246.03;5010173;28;20076;-73
2022/03/01 10:18:34;;;;;;;14.68;9.65;;;;;;;2.28;66.09;100243.75;5006130;28;20097;-72
2022/03/01 10:21:05;;;;;;;19.17;10.98;;;;;;;2.30;65.96;100236.50;4982671;28;20038;-73
2022/03/01 10:23:31;;;;;;;18.10;10.90;;;;;;;2.34;65.65;100240.44;5003553;28;20025;-73
2022/03/01 10:25:56;;;;;;;16.73;10.63;;;;;;;2.43;65.48;100236.03;4995562;28;20146;-73
2022/03/01 10:28:33;;;;;;;18.65;11.35;;;;;;;2.47;65.15;100235.53;5010741;28;20053;-73
2022/03/01 10:31:09;;;;;;;19.85;11.02;;;;;;;2.50;66.28;100224.69;5014700;28;20038;-72
2022/03/01 10:33:35;;;;;;;17.75;11.02;;;;;;;2.54;65.85;100226.00;5012993;28;20476;-72
2022/03/01 10:36:00;;;;;;;21.13;10.73;;;;;;;2.53;65.76;100224.38;5009004;28;20038;-72
2022/03/01 10:38:25;;;;;;;17.08;10.35;;;;;;;2.64;65.05;100239.88;5010856;28;20076;-72
2022/03/01 10:40:59;;;;;;;16.75;9.68;;;;;;;2.67;65.87;100228.13;5022758;28;20048;-72
2022/03/01 10:43:25;;;;;;;18.40;10.32;;;;;;;2.74;65.23;100229.13;5011013;28;20025;-73
2022/03/01 10:45:51;;;;;;;20.30;12.00;;;;;;;2.78;64.79;100226.00;5012329;28;20037;-73
2022/03/01 10:48:27;;;;;;;16.40;10.38;;;;;;;2.82;65.09;100227.31;5011484;28;20037;-73
2022/03/01 10:51:08;;;;;;;17.73;10.38;;;;;;;2.88;64.97;100236.41;5006943;28;20041;-72
2022/03/01 10:53:36;;;;;;;17.08;10.48;;;;;;;2.89;64.91;100217.78;5007965;28;20022;-72
2022/03/01 10:56:04;;;;;;;17.27;11.27;;;;;;;2.95;64.97;100214.47;5007930;28;20041;-72
2022/03/01 10:58:30;;;;;;;20.00;11.27;;;;;;;3.00;64.41;100220.06;4993732;28;20088;-72
2022/03/01 11:00:59;;;;;;;18.85;10.98;;;;;;;3.09;64.80;100214.78;5015702;28;20033;-72
2022/03/01 11:03:30;;;;;;;18.67;10.77;;;;;;;3.15;64.06;100212.31;5018097;28;20030;-72
2022/03/01 11:05:56;;;;;;;15.43;9.80;;;;;;;3.17;63.09;100201.59;5011518;28;20018;-72
2022/03/01 11:08:40;;;;;;;17.05;10.88;;;;;;;3.22;64.28;100208.00;5022712;28;20506;-70
2022/03/01 11:11:10;;;;;;;15.57;10.65;;;;;;;3.29;64.28;100216.91;5003169;28;20033;-72